Terminal Aerodrome Forecast
Issued by NWS

Home | Current Version | Previous Version | Text Only | Print | Product List | Glossary On
Versions: 1 2 3 4 5 6 7 8 9 10 11 12 13 14 15 16 17 18 19 20 21 22 23 24 25 26 27 28 29 30
000
FTUS41 KOKX 110840 AAA
TAFGON
TAF AMD
KGON 110840Z 1109/1206 36004KT P6SM SKC
     FM111200 31004KT P6SM SCT250
     FM111500 28006KT P6SM OVC120
     FM111700 23008KT P6SM SCT040 OVC060
     FM112300 21006KT 3SM -SN BR SCT025 OVC035
     FM120200 18005KT 2SM -SN BR SCT015 OVC025=

USA.gov is the U.S. government's official web portal to all federal, state and local government web resources and services.